createdAt,value
2022-12-11T00:01:15.289Z,1.26
2022-12-11T00:03:43.668Z,1.21
2022-12-11T00:06:15.424Z,1.22
2022-12-11T00:08:44.317Z,1.21
2022-12-11T00:11:14.020Z,1.16
2022-12-11T00:13:42.867Z,1.22
2022-12-11T00:16:11.841Z,1.07
2022-12-11T00:18:40.489Z,1.03
2022-12-11T00:21:11.905Z,0.92
2022-12-11T00:23:42.223Z,0.78
2022-12-11T00:26:13.808Z,0.78
2022-12-11T00:28:42.656Z,1.06
2022-12-11T00:31:14.759Z,1.18
2022-12-11T00:33:43.464Z,1.20
2022-12-11T00:36:16.496Z,1.25
2022-12-11T00:38:46.086Z,1.31
2022-12-11T00:41:14.412Z,1.24
2022-12-11T00:43:42.832Z,1.25
2022-12-11T00:46:11.714Z,1.20
2022-12-11T00:48:40.311Z,1.20
2022-12-11T00:51:08.839Z,1.23
2022-12-11T00:53:37.213Z,1.16
2022-12-11T00:56:13.499Z,1.12
2022-12-11T00:58:41.805Z,1.04
2022-12-11T01:01:11.701Z,1.05
2022-12-11T01:03:40.179Z,1.04
2022-12-11T01:06:09.255Z,1.01
2022-12-11T01:08:38.888Z,0.93
2022-12-11T01:11:08.639Z,0.98
2022-12-11T01:13:38.890Z,0.78
2022-12-11T01:16:09.340Z,0.91
2022-12-11T01:18:37.971Z,0.94
2022-12-11T01:21:10.343Z,1.02
2022-12-11T01:23:39.854Z,1.08
2022-12-11T01:26:09.956Z,1.04
2022-12-11T01:28:39.896Z,0.98
2022-12-11T01:31:10.068Z,1.06
2022-12-11T01:33:38.433Z,1.10
2022-12-11T01:36:09.490Z,1.13
2022-12-11T01:38:37.960Z,1.18
2022-12-11T01:41:07.049Z,1.22
2022-12-11T01:43:35.437Z,1.20
2022-12-11T01:46:05.316Z,1.27
2022-12-11T01:48:36.779Z,1.28
2022-12-11T01:51:08.948Z,1.26
2022-12-11T01:53:41.561Z,1.28
2022-12-11T01:56:11.055Z,1.36
2022-12-11T01:58:43.802Z,1.34
2022-12-11T02:01:18.043Z,1.39
2022-12-11T02:03:46.289Z,1.27
2022-12-11T02:06:31.176Z,1.37
2022-12-11T02:08:59.528Z,1.45
2022-12-11T02:11:34.106Z,1.37
2022-12-11T02:14:07.983Z,1.37
2022-12-11T02:16:44.185Z,1.31
2022-12-11T02:19:23.024Z,1.31
2022-12-11T02:21:54.284Z,1.33
2022-12-11T02:24:51.932Z,1.16
2022-12-11T02:27:29.877Z,1.21
2022-12-11T02:30:03.618Z,1.05
2022-12-11T02:32:38.255Z,0.84
2022-12-11T02:35:11.898Z,1.14
2022-12-11T02:37:44.772Z,1.32
2022-12-11T02:40:16.100Z,1.31
2022-12-11T02:42:47.758Z,1.35
2022-12-11T02:45:19.374Z,1.37
2022-12-11T02:47:49.245Z,1.49
2022-12-11T02:50:21.130Z,1.46
2022-12-11T02:52:53.608Z,1.49
2022-12-11T02:55:22.208Z,1.46
2022-12-11T02:57:54.320Z,1.47
2022-12-11T03:00:24.017Z,1.49
2022-12-11T03:02:52.488Z,1.45
2022-12-11T03:05:20.917Z,1.45
2022-12-11T03:07:49.675Z,1.49
2022-12-11T03:10:20.194Z,1.49
2022-12-11T03:12:54.140Z,1.49
2022-12-11T03:15:31.487Z,1.50
2022-12-11T03:18:07.652Z,1.47
2022-12-11T03:20:40.045Z,1.53
2022-12-11T03:23:19.586Z,1.55
2022-12-11T03:25:54.624Z,1.47
2022-12-11T03:28:28.347Z,1.55
2022-12-11T03:30:59.432Z,1.54
2022-12-11T03:33:32.550Z,1.53
2022-12-11T03:36:07.288Z,1.45
2022-12-11T03:38:39.817Z,1.39
2022-12-11T03:41:09.691Z,1.42
2022-12-11T03:43:40.014Z,1.43
2022-12-11T03:46:11.192Z,1.42
2022-12-11T03:48:43.007Z,1.41
2022-12-11T03:51:11.345Z,1.42
2022-12-11T03:53:40.285Z,1.33
2022-12-11T03:56:11.381Z,1.43
2022-12-11T03:58:39.648Z,1.42
2022-12-11T04:01:11.739Z,1.40
2022-12-11T04:03:40.589Z,1.42
2022-12-11T04:06:09.166Z,1.47
2022-12-11T04:08:37.363Z,1.46
2022-12-11T04:11:23.413Z,1.42
2022-12-11T04:14:12.278Z,1.47
2022-12-11T04:16:40.915Z,1.46
2022-12-11T04:19:40.307Z,1.49
2022-12-11T04:22:26.951Z,1.45
2022-12-11T04:24:55.256Z,1.45
2022-12-11T04:27:41.127Z,1.49
2022-12-11T04:30:12.525Z,1.54
2022-12-11T04:32:42.347Z,1.50
2022-12-11T04:35:12.056Z,1.55
2022-12-11T04:37:41.033Z,1.60
2022-12-11T04:40:12.882Z,1.56
2022-12-11T04:42:41.545Z,1.56
2022-12-11T04:45:11.572Z,1.52
2022-12-11T04:47:42.829Z,1.56
2022-12-11T04:50:13.293Z,1.54
2022-12-11T04:52:41.740Z,1.49
2022-12-11T04:55:11.405Z,1.52
2022-12-11T04:57:40.176Z,1.50
2022-12-11T05:00:11.016Z,1.53
2022-12-11T05:02:43.097Z,1.47
2022-12-11T05:05:12.930Z,1.51
2022-12-11T05:07:41.989Z,1.56
2022-12-11T05:10:10.839Z,1.55
2022-12-11T05:12:39.022Z,1.54
2022-12-11T05:15:08.615Z,1.62
2022-12-11T05:17:36.959Z,1.63
2022-12-11T05:20:07.734Z,1.56
2022-12-11T05:22:36.391Z,1.56
2022-12-11T05:25:04.903Z,1.57
2022-12-11T05:27:33.129Z,1.51
2022-12-11T05:30:01.669Z,1.47
2022-12-11T05:32:30.300Z,1.40
2022-12-11T05:34:58.509Z,1.40
2022-12-11T05:37:28.474Z,1.43
2022-12-11T05:39:56.633Z,1.41
2022-12-11T05:42:28.793Z,1.47
2022-12-11T05:44:57.227Z,1.47
2022-12-11T05:47:25.645Z,1.47
2022-12-11T05:49:53.882Z,1.49
2022-12-11T05:52:22.187Z,1.42
2022-12-11T05:54:51.905Z,1.39
2022-12-11T05:57:20.133Z,1.45
2022-12-11T05:59:48.310Z,1.41
2022-12-11T06:02:16.529Z,1.45
2022-12-11T06:04:44.898Z,1.41
2022-12-11T06:07:13.172Z,1.41
2022-12-11T06:09:41.330Z,1.38
2022-12-11T06:12:10.904Z,1.38
2022-12-11T06:14:39.237Z,1.36
2022-12-11T06:17:07.477Z,1.27
2022-12-11T06:19:37.138Z,1.27
2022-12-11T06:22:05.610Z,1.32
2022-12-11T06:24:34.137Z,1.33
2022-12-11T06:27:02.319Z,1.39
2022-12-11T06:29:31.898Z,1.46
2022-12-11T06:32:00.135Z,1.40
2022-12-11T06:34:28.886Z,1.46
2022-12-11T06:36:57.152Z,1.49
2022-12-11T06:39:25.346Z,1.52
2022-12-11T06:41:54.321Z,1.53
2022-12-11T06:44:22.562Z,1.50
2022-12-11T06:46:52.064Z,1.52
2022-12-11T06:49:20.280Z,1.47
2022-12-11T06:51:48.553Z,1.49
2022-12-11T06:54:16.782Z,1.50
2022-12-11T06:56:44.923Z,1.51
2022-12-11T06:59:13.709Z,1.53
2022-12-11T07:01:41.944Z,1.54
2022-12-11T07:04:11.658Z,1.49
2022-12-11T07:06:39.880Z,1.42
2022-12-11T07:09:08.277Z,1.45
2022-12-11T07:11:36.494Z,1.45
2022-12-11T07:14:04.728Z,1.51
2022-12-11T07:16:32.974Z,1.48
2022-12-11T07:19:01.921Z,1.43
2022-12-11T07:21:31.503Z,1.40
2022-12-11T07:24:00.342Z,1.40
2022-12-11T07:26:29.626Z,1.42
2022-12-11T07:28:58.813Z,1.46
2022-12-11T07:31:29.627Z,1.50
2022-12-11T07:33:59.209Z,1.43
2022-12-11T07:36:28.349Z,1.40
2022-12-11T07:38:58.176Z,1.42
2022-12-11T07:41:27.723Z,1.36
2022-12-11T07:43:56.028Z,1.37
2022-12-11T07:46:26.663Z,1.34
2022-12-11T07:48:55.622Z,1.31
2022-12-11T07:51:27.707Z,1.40
2022-12-11T07:53:59.670Z,1.31
2022-12-11T07:56:29.083Z,1.31
2022-12-11T07:58:57.321Z,1.38
2022-12-11T08:01:27.975Z,1.38
2022-12-11T08:03:57.318Z,1.36
2022-12-11T08:06:28.073Z,1.38
2022-12-11T08:08:58.286Z,1.38
2022-12-11T08:11:27.070Z,1.31
2022-12-11T08:13:55.952Z,1.37
2022-12-11T08:16:24.491Z,1.41
2022-12-11T08:18:52.809Z,1.40
2022-12-11T08:21:22.772Z,1.29
2022-12-11T08:23:51.633Z,1.26
2022-12-11T08:26:24.194Z,1.21
2022-12-11T08:28:52.667Z,1.16
2022-12-11T08:31:21.724Z,1.14
2022-12-11T08:33:50.859Z,1.17
2022-12-11T08:36:20.975Z,1.13
2022-12-11T08:38:51.254Z,1.19
2022-12-11T08:41:23.311Z,1.28
2022-12-11T08:43:54.855Z,1.36
2022-12-11T08:46:24.890Z,1.31
2022-12-11T08:48:53.753Z,1.34
2022-12-11T08:51:23.938Z,1.47
2022-12-11T08:53:52.561Z,1.46
2022-12-11T08:56:23.792Z,1.36
2022-12-11T08:58:52.619Z,1.32
2022-12-11T09:01:22.892Z,1.36
2022-12-11T09:03:52.790Z,1.35
2022-12-11T09:06:23.441Z,1.42
2022-12-11T09:08:53.691Z,1.50
2022-12-11T09:11:25.694Z,1.55
2022-12-11T09:13:54.310Z,1.42
2022-12-11T09:16:24.418Z,1.41
2022-12-11T09:18:54.833Z,1.43
2022-12-11T09:21:25.289Z,1.50
2022-12-11T09:23:55.523Z,1.51
2022-12-11T09:26:25.854Z,1.49
2022-12-11T09:28:54.964Z,1.62
2022-12-11T09:31:25.638Z,1.60
2022-12-11T09:33:57.048Z,1.53
2022-12-11T09:36:25.739Z,1.52
2022-12-11T09:38:54.375Z,1.49
2022-12-11T09:41:40.540Z,1.51
2022-12-11T09:44:24.584Z,1.50
2022-12-11T09:46:53.144Z,1.50
2022-12-11T09:49:29.728Z,1.61
2022-12-11T09:52:04.785Z,1.43
2022-12-11T09:54:34.174Z,1.51
2022-12-11T09:57:13.769Z,1.54
2022-12-11T09:59:51.486Z,1.57
2022-12-11T10:02:30.029Z,1.55
2022-12-11T10:05:09.275Z,1.63
2022-12-11T10:07:42.917Z,1.54
2022-12-11T10:10:20.995Z,1.52
2022-12-11T10:12:57.290Z,1.52
2022-12-11T10:15:36.952Z,1.49
2022-12-11T10:18:10.905Z,1.57
2022-12-11T10:20:42.747Z,1.68
2022-12-11T10:23:18.953Z,1.67
2022-12-11T10:25:52.726Z,1.63
2022-12-11T10:28:22.579Z,1.63
2022-12-11T10:30:56.505Z,1.57
2022-12-11T10:33:34.682Z,1.51
2022-12-11T10:36:03.397Z,1.54
2022-12-11T10:38:33.624Z,1.61
2022-12-11T10:41:04.182Z,1.79
2022-12-11T10:43:39.672Z,1.64
2022-12-11T10:46:15.887Z,1.70
2022-12-11T10:48:47.938Z,1.65
2022-12-11T10:51:16.800Z,1.64
2022-12-11T10:53:50.492Z,1.67
2022-12-11T10:56:26.654Z,1.68
2022-12-11T10:58:58.793Z,1.68
2022-12-11T11:01:30.058Z,1.84
2022-12-11T11:04:04.373Z,1.85
2022-12-11T11:06:33.258Z,1.90
2022-12-11T11:09:03.067Z,2.00
2022-12-11T11:11:34.279Z,1.94
2022-12-11T11:14:13.348Z,1.85
2022-12-11T11:16:42.773Z,1.97
2022-12-11T11:19:20.039Z,2.03
2022-12-11T11:21:51.843Z,2.19
2022-12-11T11:24:28.575Z,2.40
2022-12-11T11:27:12.921Z,2.35
2022-12-11T11:29:47.670Z,2.24
2022-12-11T11:32:22.220Z,2.12
2022-12-11T11:34:50.514Z,2.25
2022-12-11T11:37:32.963Z,2.03
2022-12-11T11:40:08.006Z,1.99
2022-12-11T11:42:44.888Z,2.21
2022-12-11T11:45:18.709Z,2.36
2022-12-11T11:47:59.961Z,2.49
2022-12-11T11:50:34.844Z,2.34
2022-12-11T11:53:08.763Z,2.19
2022-12-11T11:55:44.794Z,2.17
2022-12-11T11:58:17.954Z,2.02
2022-12-11T12:00:47.626Z,2.12
2022-12-11T12:03:19.620Z,2.07
2022-12-11T12:05:55.122Z,2.01
2022-12-11T12:08:35.324Z,2.06
2022-12-11T12:11:11.342Z,2.21
2022-12-11T12:13:50.679Z,2.24
2022-12-11T12:19:36.094Z,2.27
2022-12-11T12:22:15.385Z,2.11
2022-12-11T12:24:55.443Z,2.11
2022-12-11T12:30:24.094Z,2.03
2022-12-11T12:33:14.206Z,1.93
2022-12-11T12:35:51.657Z,1.97
2022-12-11T12:38:24.775Z,2.00
2022-12-11T12:41:04.590Z,1.98
2022-12-11T12:43:49.067Z,2.07
2022-12-11T12:46:26.831Z,2.16
2022-12-11T12:48:58.402Z,2.06
2022-12-11T12:51:27.414Z,2.03
2022-12-11T12:53:58.328Z,2.02
2022-12-11T12:56:28.533Z,1.91
2022-12-11T12:58:56.760Z,1.99
2022-12-11T13:01:27.284Z,2.01
2022-12-11T13:03:59.742Z,1.91
2022-12-11T13:06:34.065Z,1.88
2022-12-11T13:09:17.126Z,1.84
2022-12-11T13:11:46.878Z,1.91
2022-12-11T13:14:29.623Z,1.92
2022-12-11T13:17:23.882Z,1.94
2022-12-11T13:20:11.963Z,1.93
2022-12-11T13:22:55.197Z,1.93
2022-12-11T13:25:29.690Z,1.86
2022-12-11T13:28:07.790Z,1.86
2022-12-11T13:30:36.340Z,1.91
2022-12-11T13:33:07.387Z,1.80
2022-12-11T13:35:37.147Z,1.81
2022-12-11T13:38:08.455Z,1.82
2022-12-11T13:40:41.143Z,1.78
2022-12-11T13:43:19.521Z,1.78
2022-12-11T13:45:51.415Z,1.80
2022-12-11T13:48:25.327Z,1.81
2022-12-11T13:50:56.081Z,1.84
2022-12-11T13:53:24.865Z,1.79
2022-12-11T13:56:01.825Z,1.77
2022-12-11T13:58:31.494Z,1.80
2022-12-11T14:01:08.227Z,1.76
2022-12-11T14:03:37.031Z,1.66
2022-12-11T14:06:16.599Z,1.75
2022-12-11T14:08:50.932Z,1.85
2022-12-11T14:11:24.873Z,1.91
2022-12-11T14:13:53.083Z,1.85
2022-12-11T14:16:23.764Z,1.96
2022-12-11T14:18:53.737Z,1.90
2022-12-11T14:21:25.287Z,1.93
2022-12-11T14:23:55.299Z,1.78
2022-12-11T14:26:27.394Z,1.72
2022-12-11T14:28:56.257Z,1.76
2022-12-11T14:31:30.306Z,1.76
2022-12-11T14:34:03.978Z,1.71
2022-12-11T14:36:36.493Z,1.72
2022-12-11T14:39:07.688Z,1.80
2022-12-11T14:41:43.985Z,1.90
2022-12-11T14:44:15.926Z,2.01
2022-12-11T14:46:47.372Z,1.91
2022-12-11T14:49:22.156Z,1.88
2022-12-11T14:51:53.001Z,1.76
2022-12-11T14:54:28.374Z,1.68
2022-12-11T14:56:57.421Z,1.63
2022-12-11T14:59:31.821Z,1.67
2022-12-11T15:02:03.279Z,1.67
2022-12-11T15:04:34.503Z,1.63
2022-12-11T15:07:04.342Z,1.63
2022-12-11T15:09:40.723Z,1.55
2022-12-11T15:12:12.404Z,1.55
2022-12-11T15:14:48.629Z,1.56
2022-12-11T15:17:17.417Z,1.54
2022-12-11T15:19:51.168Z,1.53
2022-12-11T15:22:24.139Z,1.50
2022-12-11T15:24:54.136Z,1.51
2022-12-11T15:27:30.867Z,1.54
2022-12-11T15:29:59.170Z,1.51
2022-12-11T15:32:27.901Z,1.52
2022-12-11T15:34:57.814Z,1.51
2022-12-11T15:37:29.370Z,1.52
2022-12-11T15:39:59.189Z,1.46
2022-12-11T15:42:30.199Z,1.43
2022-12-11T15:44:59.332Z,1.49
2022-12-11T15:47:29.382Z,1.46
2022-12-11T15:50:00.667Z,1.45
2022-12-11T15:52:30.354Z,1.53
2022-12-11T15:54:58.614Z,1.56
2022-12-11T15:57:27.165Z,1.57
2022-12-11T15:59:56.763Z,1.57
2022-12-11T16:02:26.778Z,1.52
2022-12-11T16:04:57.668Z,1.56
2022-12-11T16:07:27.402Z,1.49
2022-12-11T16:09:57.032Z,1.46
2022-12-11T16:12:25.461Z,1.51
2022-12-11T16:14:54.834Z,1.48
2022-12-11T16:17:23.140Z,1.53
2022-12-11T16:19:51.690Z,1.55
2022-12-11T16:22:19.890Z,1.54
2022-12-11T16:24:48.349Z,1.53
2022-12-11T16:27:22.917Z,1.49
2022-12-11T16:29:52.029Z,1.55
2022-12-11T16:32:21.400Z,1.53
2022-12-11T16:34:49.683Z,1.41
2022-12-11T16:37:17.967Z,1.46
2022-12-11T16:39:46.937Z,1.50
2022-12-11T16:42:15.177Z,1.50
2022-12-11T16:44:47.420Z,1.51
2022-12-11T16:47:16.068Z,1.52
2022-12-11T16:49:44.309Z,1.46
2022-12-11T16:52:15.351Z,1.54
2022-12-11T16:54:47.215Z,1.45
2022-12-11T16:57:15.388Z,1.38
2022-12-11T16:59:45.022Z,1.42
2022-12-11T17:02:13.492Z,1.41
2022-12-11T17:04:41.914Z,1.38
2022-12-11T17:07:10.262Z,1.38
2022-12-11T17:09:38.611Z,1.49
2022-12-11T17:12:08.159Z,1.43
2022-12-11T17:14:37.725Z,1.50
2022-12-11T17:17:07.703Z,1.46
2022-12-11T17:19:36.222Z,1.45
2022-12-11T17:22:05.733Z,1.36
2022-12-11T17:24:34.323Z,1.38
2022-12-11T17:27:02.649Z,1.33
2022-12-11T17:29:31.008Z,1.36
2022-12-11T17:31:59.451Z,1.36
2022-12-11T17:34:33.084Z,1.37
2022-12-11T17:37:05.682Z,1.33
2022-12-11T17:39:34.474Z,1.37
2022-12-11T17:42:02.695Z,1.34
2022-12-11T17:44:31.417Z,1.32
2022-12-11T17:47:00.084Z,1.31
2022-12-11T17:49:29.711Z,1.29
2022-12-11T17:51:58.224Z,1.36
2022-12-11T17:54:26.874Z,1.37
2022-12-11T17:56:55.110Z,1.45
2022-12-11T17:59:23.339Z,1.39
2022-12-11T18:01:51.773Z,1.34
2022-12-11T18:04:20.048Z,1.34
2022-12-11T18:06:49.661Z,1.33
2022-12-11T18:09:18.043Z,1.32
2022-12-11T18:11:46.316Z,1.21
2022-12-11T18:14:17.338Z,1.19
2022-12-11T18:16:46.301Z,1.09
2022-12-11T18:19:15.704Z,1.09
2022-12-11T18:21:45.797Z,0.98
2022-12-11T18:24:15.579Z,0.94
2022-12-11T18:26:43.848Z,0.93
2022-12-11T18:29:12.394Z,0.88
2022-12-11T18:31:42.907Z,0.81
2022-12-11T18:34:11.947Z,0.78
2022-12-11T18:36:41.518Z,0.76
2022-12-11T18:39:09.814Z,0.78
2022-12-11T18:41:40.003Z,0.79
2022-12-11T18:44:10.150Z,0.76
2022-12-11T18:46:39.931Z,0.75
2022-12-11T18:49:08.658Z,0.82
2022-12-11T18:51:37.309Z,0.86
2022-12-11T18:54:06.635Z,0.83
2022-12-11T18:56:35.056Z,0.93
2022-12-11T18:59:05.887Z,0.94
2022-12-11T19:01:35.151Z,0.91
2022-12-11T19:04:07.833Z,0.96
2022-12-11T19:06:39.306Z,0.96
2022-12-11T19:09:10.166Z,0.94
2022-12-11T19:11:40.777Z,0.97
2022-12-11T19:14:11.560Z,1.02
2022-12-11T19:16:41.906Z,1.01
2022-12-11T19:19:14.212Z,0.94
2022-12-11T19:21:42.961Z,0.93
2022-12-11T19:24:14.974Z,0.92
2022-12-11T19:26:43.468Z,1.01
2022-12-11T19:29:19.877Z,0.97
2022-12-11T19:31:49.071Z,0.98
2022-12-11T19:34:17.411Z,0.98
2022-12-11T19:36:45.825Z,0.87
2022-12-11T19:39:15.366Z,0.87
2022-12-11T19:41:43.702Z,0.84
2022-12-11T19:44:13.984Z,0.76
2022-12-11T19:46:42.255Z,0.72
2022-12-11T19:49:13.075Z,0.76
2022-12-11T19:51:43.085Z,0.73
2022-12-11T19:54:15.152Z,0.67
2022-12-11T19:56:44.230Z,0.55
2022-12-11T19:59:16.685Z,0.42
2022-12-11T20:01:47.946Z,0.32
2022-12-11T20:04:17.909Z,0.27
2022-12-11T20:06:47.849Z,0.17
2022-12-11T20:09:16.472Z,0.08
2022-12-11T20:11:47.388Z,0.02
2022-12-11T20:14:22.954Z,-0.05
2022-12-11T20:19:41.159Z,-0.13
2022-12-11T20:22:10.238Z,-0.15
2022-12-11T20:24:39.286Z,-0.14
2022-12-11T20:27:09.519Z,-0.16
2022-12-11T20:29:39.175Z,-0.19
2022-12-11T20:32:11.330Z,-0.22
2022-12-11T20:34:39.921Z,-0.23
2022-12-11T20:37:09.129Z,-0.26
2022-12-11T20:39:38.001Z,-0.30
2022-12-11T20:42:07.099Z,-0.35
2022-12-11T20:44:35.778Z,-0.41
2022-12-11T20:47:07.897Z,-0.40
2022-12-11T20:49:37.164Z,-0.40
2022-12-11T20:52:06.752Z,-0.46
2022-12-11T20:54:35.331Z,-0.47
2022-12-11T20:57:03.825Z,-0.49
2022-12-11T20:59:32.925Z,-0.43
2022-12-11T21:02:01.423Z,-0.43
2022-12-11T21:04:31.579Z,-0.52
2022-12-11T21:07:00.817Z,-0.55
2022-12-11T21:09:29.619Z,-0.53
2022-12-11T21:12:00.745Z,-0.50
2022-12-11T21:14:30.315Z,-0.46
2022-12-11T21:16:58.571Z,-0.36
2022-12-11T21:19:27.709Z,-0.35
2022-12-11T21:21:58.297Z,-0.40
2022-12-11T21:24:28.748Z,-0.41
2022-12-11T21:26:58.498Z,-0.45
2022-12-11T21:29:29.386Z,-0.43
2022-12-11T21:31:58.478Z,-0.45
2022-12-11T21:34:27.532Z,-0.42
2022-12-11T21:36:57.601Z,-0.41
2022-12-11T21:39:26.401Z,-0.44
2022-12-11T21:41:54.732Z,-0.47
2022-12-11T21:47:11.358Z,-0.50
2022-12-11T21:49:39.665Z,-0.54
2022-12-11T21:52:09.524Z,-0.54
2022-12-11T21:54:39.369Z,-0.55
2022-12-11T21:57:07.756Z,-0.62
2022-12-11T21:59:36.236Z,-0.65
2022-12-11T22:02:04.834Z,-0.66
2022-12-11T22:04:33.977Z,-0.60
2022-12-11T22:07:02.318Z,-0.58
2022-12-11T22:09:32.189Z,-0.58
2022-12-11T22:12:00.692Z,-0.54
2022-12-11T22:14:31.474Z,-0.55
2022-12-11T22:17:00.856Z,-0.54
2022-12-11T22:19:32.685Z,-0.50
2022-12-11T22:22:01.499Z,-0.52
2022-12-11T22:24:31.219Z,-0.56
2022-12-11T22:26:59.469Z,-0.59
2022-12-11T22:29:28.707Z,-0.61
2022-12-11T22:31:57.121Z,-0.73
2022-12-11T22:34:25.836Z,-0.74
2022-12-11T22:36:54.357Z,-0.74
2022-12-11T22:39:22.613Z,-0.81
2022-12-11T22:41:52.445Z,-0.61
2022-12-11T22:44:22.455Z,-0.60
2022-12-11T22:46:51.106Z,-0.65
2022-12-11T22:49:20.331Z,-0.49
2022-12-11T22:51:48.946Z,-0.50
2022-12-11T22:54:17.568Z,-0.47
2022-12-11T22:56:45.863Z,-0.42
2022-12-11T22:59:15.499Z,-0.40
2022-12-11T23:01:43.720Z,-0.47
2022-12-11T23:04:12.039Z,-0.40
2022-12-11T23:06:40.330Z,-0.41
2022-12-11T23:09:08.869Z,-0.43
2022-12-11T23:11:38.559Z,-0.35
2022-12-11T23:14:09.313Z,-0.36
2022-12-11T23:16:38.928Z,-0.36
2022-12-11T23:19:07.706Z,-0.31
2022-12-11T23:21:35.997Z,-0.27
2022-12-11T23:24:05.439Z,-0.32
2022-12-11T23:26:33.708Z,-0.29
2022-12-11T23:29:02.553Z,-0.30
2022-12-11T23:31:31.199Z,-0.32
2022-12-11T23:34:01.204Z,-0.26
2022-12-11T23:36:30.035Z,-0.21
2022-12-11T23:38:58.400Z,-0.37
2022-12-11T23:41:26.813Z,-0.35
2022-12-11T23:43:55.051Z,-0.31
2022-12-11T23:46:25.283Z,-0.42
2022-12-11T23:48:53.960Z,-0.56
2022-12-11T23:51:25.500Z,-0.59
2022-12-11T23:53:54.856Z,-0.60
2022-12-11T23:56:25.376Z,-0.58
2022-12-11T23:58:54.338Z,-0.64
